Time;durP1;ratioP1;P1;durP2;ratioP2;P2;SDS_P1;SDS_P2;PMS_P1;PMS_P2;Temp;Humidity;BMP_temperature;BMP_pressure;BME280_temperature;BME280_humidity;BME280_pressure;Samples;Min_cycle;Max_cycle;Signal;HPM_P1;HPM_P2
2022/07/01 00:00:28;;;;;;;0.90;0.30;;;;;;;12.32;72.37;100653.19;5053192;28;20024;-76
2022/07/01 00:02:53;;;;;;;1.83;0.30;;;;;;;12.30;72.53;100649.88;5071977;28;20051;-77
2022/07/01 00:05:19;;;;;;;1.67;0.50;;;;;;;12.25;72.44;100647.16;5080119;28;20644;-76
2022/07/01 00:07:45;;;;;;;0.98;0.35;;;;;;;12.22;72.28;100653.34;5085126;28;20102;-76
2022/07/01 00:10:10;;;;;;;0.95;0.25;;;;;;;12.20;72.04;100647.22;5070437;28;20047;-77
2022/07/01 00:12:36;;;;;;;1.85;0.40;;;;;;;12.15;71.98;100648.16;5060402;28;20029;-76
2022/07/01 00:15:02;;;;;;;0.65;0.30;;;;;;;12.14;72.38;100651.22;5071856;28;20043;-77
2022/07/01 00:17:27;;;;;;;1.38;0.50;;;;;;;12.10;72.21;100653.78;5076771;28;20024;-77
2022/07/01 00:19:53;;;;;;;1.73;0.50;;;;;;;12.10;72.25;100655.75;5086385;28;20032;-77
2022/07/01 00:22:18;;;;;;;1.15;0.47;;;;;;;12.06;72.49;100650.81;5079525;28;20365;-77
2022/07/01 00:24:46;;;;;;;1.52;0.45;;;;;;;12.04;72.24;100660.56;5053256;28;20031;-77
2022/07/01 00:27:12;;;;;;;1.90;0.40;;;;;;;12.01;72.30;100656.44;5062167;28;20067;-77
2022/07/01 00:29:38;;;;;;;0.93;0.40;;;;;;;11.97;72.49;100663.72;5075408;28;20036;-77
2022/07/01 00:32:04;;;;;;;0.57;0.35;;;;;;;11.92;72.77;100665.72;5088140;28;20033;-77
2022/07/01 00:34:29;;;;;;;0.52;0.30;;;;;;;11.93;72.62;100661.84;5060239;28;20115;-77
2022/07/01 00:36:55;;;;;;;0.75;0.30;;;;;;;11.89;72.58;100666.34;5059566;28;20381;-77
2022/07/01 00:39:20;;;;;;;0.60;0.40;;;;;;;11.89;72.55;100669.13;5053830;28;20028;-77
2022/07/01 00:41:45;;;;;;;0.60;0.40;;;;;;;11.84;72.75;100664.44;5043657;28;20033;-77
2022/07/01 00:44:18;;;;;;;2.42;0.40;;;;;;;11.85;72.64;100669.72;5061758;28;20073;-77
2022/07/01 00:46:44;;;;;;;1.13;0.50;;;;;;;11.87;72.79;100674.16;5045661;28;20024;-77
2022/07/01 00:49:09;;;;;;;1.38;0.40;;;;;;;11.82;73.15;100673.06;5070485;28;20059;-77
2022/07/01 00:51:35;;;;;;;1.65;0.30;;;;;;;11.79;73.02;100678.41;5075863;28;20024;-77
2022/07/01 00:54:01;;;;;;;1.40;0.35;;;;;;;11.75;73.27;100667.03;5076208;28;20024;-77
2022/07/01 00:56:26;;;;;;;0.30;0.30;;;;;;;11.74;73.04;100672.91;5073042;28;20024;-77
2022/07/01 00:58:52;;;;;;;1.75;0.30;;;;;;;11.75;73.01;100674.56;5087023;28;20040;-77
2022/07/01 01:01:17;;;;;;;2.28;0.50;;;;;;;11.69;73.53;100679.34;5088900;28;20476;-77
2022/07/01 01:03:43;;;;;;;1.67;0.50;;;;;;;11.67;73.65;100678.81;5042513;28;20029;-77
2022/07/01 01:06:09;;;;;;;1.08;0.40;;;;;;;11.66;73.64;100677.19;5066626;28;20037;-77
2022/07/01 01:08:34;;;;;;;1.85;0.30;;;;;;;11.62;73.27;100674.16;5077987;28;20032;-77
2022/07/01 01:11:00;;;;;;;0.50;0.30;;;;;;;11.61;73.67;100680.00;5056083;28;20027;-77
2022/07/01 01:13:26;;;;;;;2.72;0.50;;;;;;;11.57;73.89;100681.75;5076542;28;20036;-77
2022/07/01 01:15:51;;;;;;;0.82;0.40;;;;;;;11.54;73.84;100682.34;5071647;28;20045;-77
2022/07/01 01:18:16;;;;;;;1.20;0.40;;;;;;;11.55;73.73;100679.25;5086096;28;20051;-77
2022/07/01 01:20:42;;;;;;;0.73;0.47;;;;;;;11.52;74.08;100679.03;5078026;28;20506;-77
2022/07/01 01:23:08;;;;;;;1.48;0.60;;;;;;;11.51;73.80;100682.94;5088152;28;20032;-77
2022/07/01 01:25:33;;;;;;;0.38;0.35;;;;;;;11.48;73.98;100687.13;5068310;28;20024;-77
2022/07/01 01:27:59;;;;;;;0.60;0.40;;;;;;;11.47;73.89;100691.03;5066943;28;20036;-77
2022/07/01 01:30:25;;;;;;;0.63;0.43;;;;;;;11.44;73.83;100690.78;5061730;28;20114;-77
2022/07/01 01:32:50;;;;;;;0.57;0.40;;;;;;;11.44;74.07;100693.56;5058101;28;20032;-77
2022/07/01 01:35:16;;;;;;;2.60;0.63;;;;;;;11.37;74.16;100691.97;5068022;28;20025;-77
2022/07/01 01:37:41;;;;;;;0.82;0.30;;;;;;;11.40;74.15;100691.38;5058150;28;20028;-77
2022/07/01 01:40:08;;;;;;;1.23;0.52;;;;;;;11.35;73.97;100691.44;5091207;28;20024;-77
2022/07/01 01:42:33;;;;;;;0.93;0.43;;;;;;;11.31;74.37;100695.09;5086858;28;20035;-77
2022/07/01 01:44:59;;;;;;;1.50;0.50;;;;;;;11.28;74.83;100702.09;5091093;28;20118;-77
2022/07/01 01:47:24;;;;;;;1.58;0.40;;;;;;;11.25;74.65;100697.09;5068505;28;20025;-77
2022/07/01 01:49:50;;;;;;;2.05;0.65;;;;;;;11.22;74.77;100697.69;5072830;28;20464;-77
2022/07/01 01:52:16;;;;;;;1.42;0.50;;;;;;;11.18;74.84;100696.63;5074825;28;20115;-77
2022/07/01 01:54:41;;;;;;;1.80;0.40;;;;;;;11.16;74.63;100705.25;5087657;28;20513;-77
2022/07/01 01:57:06;;;;;;;1.50;0.45;;;;;;;11.14;74.56;100701.97;5088264;28;20020;-77
2022/07/01 01:59:32;;;;;;;0.98;0.40;;;;;;;11.11;74.66;100694.19;5074701;28;20036;-76
2022/07/01 02:01:57;;;;;;;1.27;0.60;;;;;;;11.09;74.71;100692.84;5088621;28;20456;-77
2022/07/01 02:04:23;;;;;;;1.05;0.30;;;;;;;11.06;75.00;100693.41;5074489;28;20036;-77
2022/07/01 02:06:50;;;;;;;1.13;0.40;;;;;;;11.05;74.52;100695.34;5070207;28;20110;-76
2022/07/01 02:09:15;;;;;;;1.65;0.40;;;;;;;11.01;74.58;100691.53;5068345;28;20058;-77
2022/07/01 02:11:40;;;;;;;0.60;0.40;;;;;;;11.01;74.75;100696.25;5090313;28;20020;-77
2022/07/01 02:14:06;;;;;;;1.33;0.60;;;;;;;10.97;74.70;100690.44;5076693;28;20032;-77
2022/07/01 02:16:31;;;;;;;0.85;0.40;;;;;;;10.94;74.72;100689.06;5058195;28;20031;-76
2022/07/01 02:18:57;;;;;;;1.83;0.60;;;;;;;10.89;75.07;100703.03;5059566;28;20081;-76
2022/07/01 02:21:22;;;;;;;1.77;0.60;;;;;;;10.87;74.96;100696.94;5060985;28;20062;-77
2022/07/01 02:23:48;;;;;;;1.88;0.70;;;;;;;10.87;75.04;100696.09;5060407;28;20024;-77
2022/07/01 02:26:13;;;;;;;0.75;0.40;;;;;;;10.85;75.17;100696.38;5038648;28;20089;-77
2022/07/01 02:28:39;;;;;;;1.85;0.50;;;;;;;10.84;75.09;100705.84;5055379;28;20036;-77
2022/07/01 02:31:04;;;;;;;0.75;0.40;;;;;;;10.82;75.13;100701.69;5066117;28;20040;-76
2022/07/01 02:33:30;;;;;;;0.80;0.50;;;;;;;10.80;75.15;100698.38;5060683;28;20028;-77
2022/07/01 02:35:56;;;;;;;2.42;0.55;;;;;;;10.78;75.24;100701.47;5057532;28;20115;-77
2022/07/01 02:38:21;;;;;;;1.52;0.43;;;;;;;10.78;75.37;100698.69;5070249;28;20020;-77
2022/07/01 02:40:47;;;;;;;1.67;0.52;;;;;;;10.77;75.11;100697.00;5075592;28;20028;-77
2022/07/01 02:43:12;;;;;;;0.88;0.50;;;;;;;10.74;75.59;100698.41;5075068;28;20040;-77
2022/07/01 02:45:38;;;;;;;1.52;0.50;;;;;;;10.74;75.66;100697.59;5071177;28;21229;-77
2022/07/01 02:48:04;;;;;;;1.33;0.43;;;;;;;10.71;75.63;100699.00;5072978;28;20020;-77
2022/07/01 02:50:30;;;;;;;1.10;0.45;;;;;;;10.73;75.56;100701.50;5080358;28;20024;-77
2022/07/01 02:52:55;;;;;;;1.83;0.60;;;;;;;10.69;75.92;100694.84;5061216;28;20035;-77
2022/07/01 02:55:20;;;;;;;2.00;0.60;;;;;;;10.70;75.93;100708.47;5093991;28;20020;-77
2022/07/01 02:57:49;;;;;;;1.05;0.50;;;;;;;10.65;75.94;100710.44;5062918;28;20051;-77
2022/07/01 03:00:15;;;;;;;1.27;0.50;;;;;;;10.60;75.95;100707.72;5044487;28;20043;-77
2022/07/01 03:02:40;;;;;;;3.10;0.50;;;;;;;10.58;75.99;100710.75;5056621;28;20024;-77
2022/07/01 03:05:06;;;;;;;1.80;0.55;;;;;;;10.59;76.15;100708.84;5079902;28;20035;-77
2022/07/01 03:07:32;;;;;;;1.05;0.52;;;;;;;10.58;75.99;100709.94;5061372;28;20112;-76
2022/07/01 03:09:57;;;;;;;2.28;0.60;;;;;;;10.53;75.92;100708.06;5058262;28;20035;-77
2022/07/01 03:12:27;;;;;;;1.80;0.55;;;;;;;10.50;75.69;100716.94;5088151;28;20488;-77
2022/07/01 03:15:00;;;;;;;1.88;0.60;;;;;;;10.48;76.19;100716.41;5080340;28;20090;-77
2022/07/01 03:17:27;;;;;;;0.73;0.50;;;;;;;10.46;75.88;100721.41;5071218;28;20734;-77
2022/07/01 03:19:53;;;;;;;1.70;0.50;;;;;;;10.42;76.12;100731.41;5085385;28;20063;-77
2022/07/01 03:22:20;;;;;;;1.55;0.50;;;;;;;10.41;75.97;100722.28;5079385;28;20036;-77
2022/07/01 03:24:46;;;;;;;1.02;0.55;;;;;;;10.38;75.79;100724.78;5044879;28;20035;-77
2022/07/01 03:27:12;;;;;;;0.60;0.35;;;;;;;10.36;75.86;100736.19;5042129;28;20117;-77
2022/07/01 03:29:37;;;;;;;1.33;0.50;;;;;;;10.33;75.66;100739.53;5044671;28;20035;-76
2022/07/01 03:32:03;;;;;;;0.98;0.43;;;;;;;10.28;75.86;100737.63;5063629;28;20379;-77
2022/07/01 03:34:29;;;;;;;2.42;0.50;;;;;;;10.27;75.80;100747.06;5045356;28;20033;-77
2022/07/01 03:36:54;;;;;;;1.77;0.50;;;;;;;10.26;75.74;100736.22;5089344;28;20028;-77
2022/07/01 03:39:20;;;;;;;1.65;0.55;;;;;;;10.23;75.87;100742.34;5088458;28;20032;-77
2022/07/01 03:41:45;;;;;;;3.80;0.50;;;;;;;10.20;75.96;100748.47;5075116;28;20047;-77
2022/07/01 03:44:11;;;;;;;3.63;0.60;;;;;;;10.16;75.75;100739.06;5079189;28;20110;-77
2022/07/01 03:46:37;;;;;;;0.90;0.50;;;;;;;10.16;75.77;100744.59;5093373;28;20079;-77
2022/07/01 03:49:03;;;;;;;1.48;0.50;;;;;;;10.14;75.74;100744.03;5073300;28;20029;-78
2022/07/01 03:51:29;;;;;;;0.85;0.45;;;;;;;10.12;76.15;100749.91;5059050;28;20024;-77
2022/07/01 03:56:38;;;;;;;1.70;0.60;;;;;;;10.10;75.96;100751.31;5076361;28;20027;-77
2022/07/01 03:59:04;;;;;;;2.35;0.50;;;;;;;10.15;75.86;100757.66;5088115;28;20392;-77
2022/07/01 04:01:29;;;;;;;1.80;0.52;;;;;;;10.07;75.96;100759.06;5091818;28;20108;-77
2022/07/01 04:03:55;;;;;;;0.98;0.50;;;;;;;10.07;76.17;100764.63;5075049;28;20024;-77
2022/07/01 04:06:20;;;;;;;2.05;0.50;;;;;;;10.04;76.05;100765.19;5062634;28;20030;-77
2022/07/01 04:08:46;;;;;;;2.13;0.40;;;;;;;10.05;76.06;100766.00;5073704;28;20032;-77
2022/07/01 04:11:12;;;;;;;1.40;0.40;;;;;;;10.05;76.00;100769.63;5075339;28;20055;-77
2022/07/01 04:13:38;;;;;;;3.90;0.57;;;;;;;10.01;76.01;100768.53;5072335;28;20024;-77
2022/07/01 04:16:03;;;;;;;2.22;0.60;;;;;;;10.00;76.27;100768.81;5086239;28;20048;-77
2022/07/01 04:18:29;;;;;;;0.95;0.60;;;;;;;9.98;76.26;100768.28;5070659;28;20024;-77
2022/07/01 04:23:39;;;;;;;1.77;0.50;;;;;;;9.97;76.30;100767.47;5086967;28;20132;-77
2022/07/01 04:26:04;;;;;;;1.15;0.50;;;;;;;9.99;76.21;100775.47;5088719;28;20059;-77
2022/07/01 04:28:30;;;;;;;3.70;0.63;;;;;;;9.96;76.59;100776.88;5086605;28;20041;-77
2022/07/01 04:30:55;;;;;;;3.22;0.60;;;;;;;9.97;76.97;100777.69;5075597;28;20206;-77
2022/07/01 04:33:20;;;;;;;1.10;0.55;;;;;;;10.00;76.57;100772.44;5062111;28;20028;-77
2022/07/01 04:35:46;;;;;;;2.47;0.60;;;;;;;9.98;76.69;100773.84;5061251;28;20032;-77
2022/07/01 04:38:11;;;;;;;1.98;0.60;;;;;;;10.04;77.36;100778.25;5060201;28;20020;-77
2022/07/01 04:40:37;;;;;;;1.85;0.60;;;;;;;10.07;77.14;100778.50;5092846;28;20415;-77
2022/07/01 04:43:02;;;;;;;0.70;0.50;;;;;;;10.10;77.57;100776.28;5088057;28;20039;-77
2022/07/01 04:45:28;;;;;;;3.25;0.80;;;;;;;10.16;78.29;100778.72;5091009;28;20085;-77
2022/07/01 04:47:53;;;;;;;1.05;0.43;;;;;;;10.27;78.66;100779.53;5061406;28;20017;-77
2022/07/01 04:50:19;;;;;;;2.97;0.60;;;;;;;10.31;80.29;100780.66;5060660;28;20025;-77
2022/07/01 04:52:44;;;;;;;1.80;0.57;;;;;;;10.41;80.06;100783.34;5077053;28;20028;-77
2022/07/01 04:55:10;;;;;;;6.55;1.35;;;;;;;10.54;84.39;100784.69;5069606;28;20036;-77
2022/07/01 04:57:35;;;;;;;2.20;0.80;;;;;;;10.65;85.21;100788.22;5058962;28;20017;-77
2022/07/01 05:00:01;;;;;;;2.70;0.60;;;;;;;10.77;87.79;100785.91;5069287;28;20032;-77
2022/07/01 05:02:26;;;;;;;3.75;0.65;;;;;;;10.90;85.51;100788.03;5053784;28;20042;-77
2022/07/01 05:04:52;;;;;;;1.30;0.60;;;;;;;11.06;88.61;100793.47;5076735;28;20023;-77
2022/07/01 05:07:29;;;;;;;2.83;0.73;;;;;;;11.20;86.49;100788.91;5060307;28;20035;-77
2022/07/01 05:09:55;;;;;;;0.90;0.52;;;;;;;11.36;83.38;100795.97;5076803;28;20028;-77
2022/07/01 05:12:21;;;;;;;1.13;0.70;;;;;;;11.49;90.34;100791.69;5078564;28;20047;-77
2022/07/01 05:14:47;;;;;;;2.17;0.90;;;;;;;11.60;85.46;100792.41;5085185;28;20031;-77
2022/07/01 05:17:13;;;;;;;4.13;0.85;;;;;;;11.73;85.17;100788.94;5057209;28;20025;-77
2022/07/01 05:22:22;;;;;;;1.58;0.80;;;;;;;11.98;86.64;100798.13;5070773;28;20024;-77
2022/07/01 05:24:48;;;;;;;1.75;0.55;;;;;;;12.06;83.85;100790.00;5058091;28;20028;-77
2022/07/01 05:27:13;;;;;;;1.73;0.75;;;;;;;12.19;83.02;100790.38;5077053;28;20070;-77
2022/07/01 05:29:39;;;;;;;2.65;0.65;;;;;;;12.26;79.76;100788.91;5037631;28;20043;-77
2022/07/01 05:32:05;;;;;;;3.08;0.70;;;;;;;12.41;79.89;100798.16;5078664;28;20398;-77
2022/07/01 05:34:30;;;;;;;2.03;1.00;;;;;;;12.53;78.21;100798.53;5076590;28;20028;-77
2022/07/01 05:36:56;;;;;;;3.70;0.80;;;;;;;12.67;76.46;100799.44;5058855;28;20025;-77
2022/07/01 05:39:21;;;;;;;0.50;0.50;;;;;;;12.83;75.89;100804.81;5072651;28;20039;-77
2022/07/01 05:41:47;;;;;;;2.10;0.60;;;;;;;13.00;75.76;100813.44;5069385;28;20039;-76
2022/07/01 05:44:12;;;;;;;1.05;0.50;;;;;;;13.16;76.41;100802.88;5091818;28;20032;-76
2022/07/01 05:46:38;;;;;;;2.53;0.60;;;;;;;13.33;74.92;100805.97;5044786;28;20032;-76
2022/07/01 05:49:04;;;;;;;1.15;0.50;;;;;;;13.51;74.15;100809.84;5076768;28;20033;-76
2022/07/01 05:51:30;;;;;;;1.55;0.50;;;;;;;13.72;73.43;100812.25;5075186;28;20032;-76
2022/07/01 05:53:56;;;;;;;1.80;0.60;;;;;;;13.91;72.93;100814.97;5069844;28;20020;-76
2022/07/01 05:56:22;;;;;;;1.15;0.60;;;;;;;14.12;72.47;100820.97;5067503;28;20515;-76
2022/07/01 05:58:47;;;;;;;3.45;0.70;;;;;;;14.33;72.01;100819.41;5088079;28;20020;-76
2022/07/01 06:01:13;;;;;;;2.00;0.85;;;;;;;14.51;71.43;100817.63;5044560;28;20024;-76
2022/07/01 06:03:38;;;;;;;2.45;0.77;;;;;;;14.72;71.06;100818.03;5060495;28;20027;-76
2022/07/01 06:06:04;;;;;;;1.10;0.73;;;;;;;14.93;70.64;100823.97;5058720;28;20419;-76
2022/07/01 06:08:29;;;;;;;1.73;0.70;;;;;;;15.12;70.18;100823.78;5052926;28;20032;-76
2022/07/01 06:10:55;;;;;;;1.00;0.70;;;;;;;15.31;69.94;100832.81;5051755;28;20028;-77
2022/07/01 06:13:21;;;;;;;1.15;0.90;;;;;;;15.53;70.08;100825.56;5043585;28;20443;-72
2022/07/01 06:15:46;;;;;;;1.98;0.70;;;;;;;15.71;70.08;100832.13;5074685;28;20040;-72
2022/07/01 06:18:11;;;;;;;1.75;0.80;;;;;;;15.92;69.10;100844.44;5070648;28;20032;-72
2022/07/01 06:20:37;;;;;;;2.38;1.05;;;;;;;16.10;68.86;100842.53;5077717;28;20047;-77
2022/07/01 06:23:02;;;;;;;2.80;1.02;;;;;;;16.30;68.38;100832.72;5052765;28;20033;-72
2022/07/01 06:25:28;;;;;;;3.22;1.00;;;;;;;16.49;68.24;100843.63;5070734;28;20040;-72
2022/07/01 06:27:53;;;;;;;1.05;0.70;;;;;;;16.67;67.85;100850.94;5084392;28;20389;-71
2022/07/01 06:30:19;;;;;;;1.63;0.80;;;;;;;16.85;67.08;100853.81;5077578;28;20500;-71
2022/07/01 06:32:44;;;;;;;2.58;0.90;;;;;;;17.06;66.29;100856.81;5077928;28;20035;-71
2022/07/01 06:35:10;;;;;;;3.22;0.80;;;;;;;17.22;66.17;100848.69;5041230;28;20025;-72
2022/07/01 06:37:35;;;;;;;4.22;0.80;;;;;;;17.37;65.95;100854.66;5058118;28;20049;-71
2022/07/01 06:40:05;;;;;;;2.38;0.80;;;;;;;17.55;65.80;100852.66;5059243;28;20078;-71
2022/07/01 06:42:31;;;;;;;3.00;1.05;;;;;;;17.74;65.11;100852.25;5075639;28;20476;-71
2022/07/01 06:44:56;;;;;;;3.88;1.00;;;;;;;17.94;64.28;100862.00;5074140;28;20056;-72
2022/07/01 06:47:22;;;;;;;4.78;1.00;;;;;;;18.07;64.00;100849.72;5057972;28;20028;-72
2022/07/01 06:49:48;;;;;;;2.00;0.80;;;;;;;18.25;64.50;100855.28;5057542;28;20037;-72
2022/07/01 06:52:13;;;;;;;2.47;0.90;;;;;;;18.42;63.51;100860.00;5076466;28;20032;-72
2022/07/01 06:54:39;;;;;;;5.20;1.02;;;;;;;18.60;63.32;100855.09;5084740;28;20032;-72
2022/07/01 06:57:05;;;;;;;2.03;0.80;;;;;;;18.70;63.34;100854.72;5070198;28;20024;-72
2022/07/01 06:59:31;;;;;;;3.63;0.80;;;;;;;18.89;62.96;100857.09;5090434;28;20093;-72
2022/07/01 07:01:56;;;;;;;3.33;0.90;;;;;;;19.04;62.68;100853.66;5043351;28;20051;-71
2022/07/01 07:04:22;;;;;;;2.53;0.70;;;;;;;19.16;62.63;100850.06;5055875;28;20089;-71
2022/07/01 07:06:47;;;;;;;3.63;1.10;;;;;;;19.39;63.15;100853.38;5088329;28;20024;-72
2022/07/01 07:09:13;;;;;;;2.60;0.90;;;;;;;19.49;61.90;100850.09;5070505;28;20067;-72
2022/07/01 07:11:38;;;;;;;3.33;0.95;;;;;;;19.74;61.64;100848.22;5057495;28;20036;-72
2022/07/01 07:14:04;;;;;;;3.53;0.70;;;;;;;19.89;61.44;100857.19;5060470;28;20020;-72
2022/07/01 07:16:29;;;;;;;5.47;0.90;;;;;;;20.01;61.07;100860.03;5058646;28;20020;-72
2022/07/01 07:18:54;;;;;;;3.75;0.80;;;;;;;20.19;61.17;100847.38;5074219;28;20107;-72
2022/07/01 07:21:20;;;;;;;2.17;0.63;;;;;;;20.32;59.69;100851.03;5036823;28;20025;-72
2022/07/01 07:23:45;;;;;;;5.25;0.90;;;;;;;20.44;60.62;100858.66;5071881;28;20040;-72
2022/07/01 07:26:11;;;;;;;4.07;0.82;;;;;;;20.58;60.38;100859.16;5074140;28;20067;-72
2022/07/01 07:28:36;;;;;;;3.28;0.75;;;;;;;20.74;60.47;100864.91;5052266;28;20040;-72
2022/07/01 07:31:02;;;;;;;2.65;0.57;;;;;;;20.90;59.15;100856.53;5091631;28;20033;-71
2022/07/01 07:33:28;;;;;;;2.35;0.57;;;;;;;21.04;59.33;100856.16;5060414;28;20140;-72
2022/07/01 07:35:53;;;;;;;3.63;0.55;;;;;;;21.13;59.13;100859.66;5060991;28;20067;-72
2022/07/01 07:38:19;;;;;;;4.40;0.63;;;;;;;21.24;58.31;100860.81;5037123;28;20029;-73
2022/07/01 07:40:44;;;;;;;4.93;0.82;;;;;;;21.41;58.27;100854.06;5080253;28;20488;-72
2022/07/01 07:43:10;;;;;;;5.97;0.77;;;;;;;21.56;57.45;100850.47;5077879;28;20479;-72
2022/07/01 07:45:36;;;;;;;5.78;0.70;;;;;;;21.64;57.03;100849.47;5058188;28;20110;-71
2022/07/01 07:48:02;;;;;;;4.47;0.77;;;;;;;21.76;56.77;100856.25;5043629;28;20025;-72
2022/07/01 07:50:27;;;;;;;2.28;0.70;;;;;;;21.88;55.93;100855.38;5087238;28;20032;-72
2022/07/01 07:52:53;;;;;;;2.58;0.50;;;;;;;21.97;55.51;100856.81;5091141;28;20065;-72
2022/07/01 07:55:18;;;;;;;5.90;0.80;;;;;;;22.15;54.99;100847.97;5058508;28;20028;-72
2022/07/01 07:57:44;;;;;;;4.57;0.70;;;;;;;22.27;55.12;100859.25;5093425;28;20031;-72
2022/07/01 08:00:11;;;;;;;6.85;1.08;;;;;;;22.40;54.64;100852.31;5060446;28;20032;-71
2022/07/01 08:02:37;;;;;;;5.68;0.75;;;;;;;22.47;54.46;100846.81;5080123;28;20054;-72
2022/07/01 08:05:02;;;;;;;2.92;0.52;;;;;;;22.61;54.18;100856.84;5066912;28;20377;-72
2022/07/01 08:07:28;;;;;;;4.93;0.75;;;;;;;22.66;53.05;100857.38;5070455;28;20040;-71
2022/07/01 08:09:55;;;;;;;3.03;0.88;;;;;;;22.82;52.23;100850.88;5072653;28;20028;-72
2022/07/01 08:12:21;;;;;;;3.17;0.63;;;;;;;22.95;52.51;100843.88;5063182;28;20028;-71
2022/07/01 08:14:47;;;;;;;4.68;0.90;;;;;;;23.06;51.90;100844.16;5077645;28;20119;-72
2022/07/01 08:17:12;;;;;;;3.50;0.52;;;;;;;23.18;51.25;100841.19;5073190;28;20081;-71
2022/07/01 08:19:38;;;;;;;1.75;0.30;;;;;;;23.31;51.76;100844.69;5079333;28;20043;-72
2022/07/01 08:22:03;;;;;;;1.30;0.30;;;;;;;23.41;50.25;100844.91;5087966;28;20058;-72
2022/07/01 08:24:29;;;;;;;3.83;0.30;;;;;;;23.60;49.73;100841.25;5056486;28;20042;-72
2022/07/01 08:26:54;;;;;;;3.00;0.50;;;;;;;23.73;49.54;100843.94;5077898;28;20484;-72
2022/07/01 08:29:20;;;;;;;2.78;0.55;;;;;;;23.85;49.99;100853.09;5063192;28;20590;-72
2022/07/01 08:31:45;;;;;;;2.10;0.57;;;;;;;24.02;49.84;100863.13;5044652;28;20031;-72
2022/07/01 08:34:11;;;;;;;3.20;0.43;;;;;;;24.12;49.31;100852.34;5088395;28;20020;-72
2022/07/01 08:36:36;;;;;;;3.70;0.50;;;;;;;24.28;48.52;100851.00;5077263;28;20032;-72
2022/07/01 08:39:03;;;;;;;3.10;0.68;;;;;;;24.43;47.33;100854.09;5074457;28;20670;-72
2022/07/01 08:41:28;;;;;;;3.10;0.50;;;;;;;24.55;47.04;100851.09;5059555;28;21165;-72
2022/07/01 08:43:54;;;;;;;3.03;0.60;;;;;;;24.71;46.96;100854.59;5060863;28;20024;-72
2022/07/01 08:46:21;;;;;;;3.63;0.80;;;;;;;24.85;46.17;100848.31;5071926;28;20028;-72
2022/07/01 08:48:47;;;;;;;2.83;0.57;;;;;;;24.96;44.96;100854.13;5049621;28;20025;-72
2022/07/01 08:51:13;;;;;;;4.68;0.57;;;;;;;25.15;44.67;100856.03;5051375;28;20036;-72
2022/07/01 08:53:38;;;;;;;3.83;0.50;;;;;;;25.28;43.88;100853.78;5079007;28;20028;-72
2022/07/01 08:58:51;;;;;;;5.45;0.43;;;;;;;25.57;43.02;100854.94;5083124;28;20023;-72
2022/07/01 09:01:20;;;;;;;3.20;0.40;;;;;;;25.60;41.86;100857.84;5054006;28;20040;-72
2022/07/01 09:03:46;;;;;;;2.65;0.52;;;;;;;25.64;41.13;100850.16;5077792;28;20027;-72
2022/07/01 09:06:22;;;;;;;2.78;0.50;;;;;;;25.77;41.17;100859.25;5075507;28;20033;-72
2022/07/01 09:08:48;;;;;;;5.57;0.60;;;;;;;25.81;41.14;100859.28;5086905;28;20172;-73
2022/07/01 09:11:24;;;;;;;3.70;0.60;;;;;;;25.88;42.85;100859.38;5073349;28;20036;-72
2022/07/01 09:14:11;;;;;;;2.38;0.55;;;;;;;25.94;41.88;100857.03;5058474;28;20718;-73
2022/07/01 09:16:47;;;;;;;3.50;0.65;;;;;;;25.99;42.70;100857.47;5086685;28;20534;-72
2022/07/01 09:19:13;;;;;;;3.85;0.40;;;;;;;25.94;41.22;100852.13;5068221;28;20039;-72
2022/07/01 09:21:39;;;;;;;3.88;0.50;;;;;;;25.90;41.94;100854.13;5074532;28;20028;-72
2022/07/01 09:24:25;;;;;;;3.40;0.55;;;;;;;25.94;42.40;100854.97;5088607;28;20036;-73
2022/07/01 09:27:01;;;;;;;1.85;0.32;;;;;;;25.95;41.71;100852.94;5057514;28;20032;-72
2022/07/01 09:29:32;;;;;;;2.20;0.45;;;;;;;26.02;41.80;100858.69;5092887;28;20036;-72
2022/07/01 09:31:58;;;;;;;3.85;0.60;;;;;;;26.08;41.80;100852.28;5066189;28;20488;-73
2022/07/01 09:34:24;;;;;;;3.75;0.70;;;;;;;26.13;39.59;100853.94;5074039;28;20032;-73
2022/07/01 09:36:54;;;;;;;3.53;0.40;;;;;;;26.14;40.66;100852.72;5076017;28;20046;-73
2022/07/01 09:39:19;;;;;;;1.48;0.30;;;;;;;26.25;39.89;100859.34;5074673;28;20039;-73
2022/07/01 09:41:45;;;;;;;1.90;0.40;;;;;;;26.33;40.28;100856.53;5068528;28;20032;-73
2022/07/01 09:44:10;;;;;;;2.60;0.40;;;;;;;26.25;41.22;100847.16;5058854;28;20129;-72
2022/07/01 09:46:36;;;;;;;1.90;0.30;;;;;;;26.15;42.76;100850.69;5067914;28;20028;-72
2022/07/01 09:49:02;;;;;;;3.13;0.40;;;;;;;26.12;41.05;100849.44;5077849;28;20119;-72
2022/07/01 09:51:28;;;;;;;3.30;0.40;;;;;;;26.21;41.01;100854.81;5075542;28;20492;-72
2022/07/01 09:53:56;;;;;;;1.80;0.30;;;;;;;26.23;39.02;100849.56;5085597;28;20031;-72
2022/07/01 09:56:22;;;;;;;2.50;0.40;;;;;;;26.40;38.57;100854.56;5058334;28;20073;-72
2022/07/01 09:58:48;;;;;;;2.90;0.40;;;;;;;26.43;38.97;100848.09;5053800;28;20032;-72
2022/07/01 10:01:14;;;;;;;1.42;0.50;;;;;;;26.60;38.23;100854.34;5071918;28;20091;-72
2022/07/01 10:03:40;;;;;;;2.42;0.50;;;;;;;26.79;37.89;100845.53;5059614;28;20084;-72
2022/07/01 10:06:18;;;;;;;2.38;0.30;;;;;;;27.00;38.77;100847.72;5058846;28;20424;-72
2022/07/01 10:09:09;;;;;;;3.22;0.20;;;;;;;27.26;38.78;100855.19;5087669;28;20083;-73
2022/07/01 10:11:57;;;;;;;2.72;0.40;;;;;;;27.43;37.63;100847.13;5084680;28;20039;-72
2022/07/01 10:14:23;;;;;;;1.95;0.47;;;;;;;27.56;35.31;100848.41;5087146;28;20036;-72
2022/07/01 10:16:48;;;;;;;2.97;0.30;;;;;;;27.68;34.94;100848.00;5060663;28;20031;-72
2022/07/01 10:19:20;;;;;;;1.58;0.35;;;;;;;27.82;35.79;100836.66;5048957;28;20400;-72
2022/07/01 10:21:45;;;;;;;1.85;0.30;;;;;;;27.90;36.04;100848.91;5086294;28;20036;-72
2022/07/01 10:24:15;;;;;;;2.20;0.40;;;;;;;27.97;35.21;100848.94;5087901;28;20047;-72
2022/07/01 10:26:41;;;;;;;1.15;0.20;;;;;;;28.07;35.36;100844.44;5070144;28;20037;-73
2022/07/01 10:29:32;;;;;;;3.25;0.40;;;;;;;28.06;35.03;100845.69;5086596;28;20041;-74
2022/07/01 10:32:23;;;;;;;2.25;0.20;;;;;;;28.05;35.32;100844.88;5084180;28;20112;-73
2022/07/01 10:34:49;;;;;;;1.55;0.30;;;;;;;27.96;34.69;100844.44;5058700;28;20032;-73
2022/07/01 10:37:16;;;;;;;1.25;0.20;;;;;;;27.99;34.78;100837.91;5088954;28;20024;-73
2022/07/01 10:39:58;;;;;;;1.00;0.30;;;;;;;27.89;34.43;100843.59;5066746;28;20028;-73
2022/07/01 10:42:30;;;;;;;3.23;0.33;;;;;;;27.92;35.02;100842.81;5066033;28;20037;-73
2022/07/01 10:45:09;;;;;;;2.30;0.40;;;;;;;27.88;34.71;100847.69;5085201;28;20120;-73
2022/07/01 10:47:35;;;;;;;1.58;0.30;;;;;;;27.86;34.66;100853.81;5075965;28;20016;-73
2022/07/01 10:50:12;;;;;;;4.05;0.40;;;;;;;27.77;35.14;100851.28;5076007;28;20028;-73
2022/07/01 10:52:38;;;;;;;1.05;0.20;;;;;;;27.69;35.33;100855.34;5071342;28;20078;-79
2022/07/01 10:55:06;;;;;;;2.10;0.28;;;;;;;27.63;35.53;100860.63;5053945;28;20044;-79
2022/07/01 10:57:31;;;;;;;2.00;0.40;;;;;;;27.51;35.81;100855.28;5084949;28;20459;-79
2022/07/01 11:00:00;;;;;;;3.08;0.30;;;;;;;27.45;35.50;100864.66;5071418;28;20028;-81
2022/07/01 11:02:27;;;;;;;2.42;0.50;;;;;;;27.36;35.75;100854.44;5072164;28;20028;-81
2022/07/01 11:05:19;;;;;;;2.63;0.30;;;;;;;27.33;36.20;100857.25;5046541;28;20388;-78
2022/07/01 11:07:46;;;;;;;1.52;0.40;;;;;;;27.35;34.68;100863.38;5072515;28;20063;-78
2022/07/01 11:10:12;;;;;;;1.92;0.30;;;;;;;27.30;35.23;100858.91;5062057;28;20028;-79
2022/07/01 11:12:38;;;;;;;0.98;0.30;;;;;;;27.34;35.10;100865.41;5059316;28;20027;-79
2022/07/01 11:15:07;;;;;;;1.75;0.40;;;;;;;27.33;35.76;100860.09;5068536;28;20048;-79
2022/07/01 11:17:34;;;;;;;1.70;0.30;;;;;;;27.35;35.91;100855.63;5083495;28;20057;-79
2022/07/01 11:20:01;;;;;;;4.25;0.28;;;;;;;27.35;34.92;100858.50;5079687;28;20059;-78
2022/07/01 11:22:29;;;;;;;1.25;0.15;;;;;;;27.27;35.63;100859.66;5074641;28;20040;-79
2022/07/01 11:24:55;;;;;;;3.38;0.40;;;;;;;27.16;36.14;100848.25;5075886;28;20024;-79
2022/07/01 11:27:22;;;;;;;1.35;0.30;;;;;;;27.15;35.58;100857.16;5065041;28;20119;-79
2022/07/01 11:30:00;;;;;;;1.55;0.30;;;;;;;27.17;35.17;100855.56;5079532;28;20531;-79
2022/07/01 11:32:30;;;;;;;3.55;0.50;;;;;;;27.14;35.76;100852.69;5090258;28;20076;-79